sensor_id;sensor_type;location;lat;lon;timestamp;temperature;humidity
55369;DHT22;41247;49.736;8.752;2023-02-13T00:00:50;2.00;99.90
55369;DHT22;41247;49.736;8.752;2023-02-13T00:04:30;2.20;99.90
55369;DHT22;41247;49.736;8.752;2023-02-13T00:08:11;2.20;99.90
55369;DHT22;41247;49.736;8.752;2023-02-13T00:11:51;2.40;99.90
55369;DHT22;41247;49.736;8.752;2023-02-13T00:15:32;2.40;99.90
55369;DHT22;41247;49.736;8.752;2023-02-13T00:19:13;2.30;99.90
55369;DHT22;41247;49.736;8.752;2023-02-13T00:22:53;2.30;99.90
55369;DHT22;41247;49.736;8.752;2023-02-13T00:26:34;2.30;99.90
55369;DHT22;41247;49.736;8.752;2023-02-13T00:30:15;2.30;99.90
55369;DHT22;41247;49.736;8.752;2023-02-13T00:33:56;2.30;99.90
55369;DHT22;41247;49.736;8.752;2023-02-13T00:37:36;2.20;99.90
55369;DHT22;41247;49.736;8.752;2023-02-13T00:41:17;2.20;99.90
55369;DHT22;41247;49.736;8.752;2023-02-13T00:44:58;2.20;99.90
55369;DHT22;41247;49.736;8.752;2023-02-13T00:48:39;2.20;99.90
55369;DHT22;41247;49.736;8.752;2023-02-13T00:52:20;2.20;99.90
55369;DHT22;41247;49.736;8.752;2023-02-13T00:56:01;2.20;99.90
55369;DHT22;41247;49.736;8.752;2023-02-13T00:59:42;2.10;99.90
55369;DHT22;41247;49.736;8.752;2023-02-13T01:03:23;2.00;99.90
55369;DHT22;41247;49.736;8.752;2023-02-13T01:07:03;1.90;99.90
55369;DHT22;41247;49.736;8.752;2023-02-13T01:10:46;1.90;99.90
55369;DHT22;41247;49.736;8.752;2023-02-13T01:14:27;1.90;99.90
55369;DHT22;41247;49.736;8.752;2023-02-13T01:18:08;1.90;99.90
55369;DHT22;41247;49.736;8.752;2023-02-13T01:21:50;1.90;99.90
55369;DHT22;41247;49.736;8.752;2023-02-13T01:25:30;2.00;99.90
55369;DHT22;41247;49.736;8.752;2023-02-13T01:29:12;2.00;99.90
55369;DHT22;41247;49.736;8.752;2023-02-13T01:32:52;1.90;99.90
55369;DHT22;41247;49.736;8.752;2023-02-13T01:36:33;1.80;99.90
55369;DHT22;41247;49.736;8.752;2023-02-13T01:40:13;1.70;99.90
55369;DHT22;41247;49.736;8.752;2023-02-13T01:43:57;1.60;99.90
55369;DHT22;41247;49.736;8.752;2023-02-13T01:47:43;1.40;99.90
55369;DHT22;41247;49.736;8.752;2023-02-13T01:51:30;1.40;99.90
55369;DHT22;41247;49.736;8.752;2023-02-13T01:55:13;1.30;99.90
55369;DHT22;41247;49.736;8.752;2023-02-13T01:59:02;1.20;99.90
55369;DHT22;41247;49.736;8.752;2023-02-13T02:02:59;1.20;99.90
55369;DHT22;41247;49.736;8.752;2023-02-13T02:06:47;1.10;99.90
55369;DHT22;41247;49.736;8.752;2023-02-13T02:10:30;1.10;99.90
55369;DHT22;41247;49.736;8.752;2023-02-13T02:14:11;1.00;99.90
55369;DHT22;41247;49.736;8.752;2023-02-13T02:17:52;1.00;99.90
55369;DHT22;41247;49.736;8.752;2023-02-13T02:30:37;0.80;99.90
55369;DHT22;41247;49.736;8.752;2023-02-13T02:34:49;0.70;99.90
55369;DHT22;41247;49.736;8.752;2023-02-13T02:39:05;0.60;99.90
55369;DHT22;41247;49.736;8.752;2023-02-13T02:47:40;0.40;99.90
55369;DHT22;41247;49.736;8.752;2023-02-13T02:55:40;0.40;99.90
55369;DHT22;41247;49.736;8.752;2023-02-13T02:59:24;0.40;99.90
55369;DHT22;41247;49.736;8.752;2023-02-13T03:03:15;0.30;99.90
55369;DHT22;41247;49.736;8.752;2023-02-13T03:07:00;0.30;99.90
55369;DHT22;41247;49.736;8.752;2023-02-13T03:10:46;0.30;99.90
55369;DHT22;41247;49.736;8.752;2023-02-13T03:14:27;0.30;99.90
55369;DHT22;41247;49.736;8.752;2023-02-13T03:18:08;0.30;99.90
55369;DHT22;41247;49.736;8.752;2023-02-13T03:22:05;0.20;99.90
55369;DHT22;41247;49.736;8.752;2023-02-13T03:27:28;0.20;99.90
55369;DHT22;41247;49.736;8.752;2023-02-13T03:31:06;0.20;99.90
55369;DHT22;41247;49.736;8.752;2023-02-13T03:43:16;0.00;99.90
55369;DHT22;41247;49.736;8.752;2023-02-13T03:47:00;-0.10;99.90
55369;DHT22;41247;49.736;8.752;2023-02-13T03:50:43;-0.10;99.90
55369;DHT22;41247;49.736;8.752;2023-02-13T03:54:32;-0.10;99.90
55369;DHT22;41247;49.736;8.752;2023-02-13T03:58:27;-0.10;99.90
55369;DHT22;41247;49.736;8.752;2023-02-13T04:02:12;-0.10;99.90
55369;DHT22;41247;49.736;8.752;2023-02-13T04:06:08;-0.10;99.90
55369;DHT22;41247;49.736;8.752;2023-02-13T04:09:51;-0.10;99.90
55369;DHT22;41247;49.736;8.752;2023-02-13T04:13:34;-0.10;99.90
55369;DHT22;41247;49.736;8.752;2023-02-13T04:17:22;-0.10;99.90
55369;DHT22;41247;49.736;8.752;2023-02-13T04:21:06;-0.10;99.90
55369;DHT22;41247;49.736;8.752;2023-02-13T04:24:47;-0.10;99.90
55369;DHT22;41247;49.736;8.752;2023-02-13T04:28:28;-0.20;99.90
55369;DHT22;41247;49.736;8.752;2023-02-13T04:32:10;-0.20;99.90
55369;DHT22;41247;49.736;8.752;2023-02-13T04:35:50;-0.20;99.90
55369;DHT22;41247;49.736;8.752;2023-02-13T04:39:31;-0.20;99.90
55369;DHT22;41247;49.736;8.752;2023-02-13T04:43:12;-0.10;99.90
55369;DHT22;41247;49.736;8.752;2023-02-13T04:46:52;0.10;99.90
55369;DHT22;41247;49.736;8.752;2023-02-13T04:50:33;0.40;99.90
55369;DHT22;41247;49.736;8.752;2023-02-13T04:54:13;0.60;99.90
55369;DHT22;41247;49.736;8.752;2023-02-13T04:57:55;0.70;99.90
55369;DHT22;41247;49.736;8.752;2023-02-13T05:01:35;0.70;99.90
55369;DHT22;41247;49.736;8.752;2023-02-13T05:05:16;0.70;99.90
55369;DHT22;41247;49.736;8.752;2023-02-13T05:08:58;0.60;99.90
55369;DHT22;41247;49.736;8.752;2023-02-13T05:12:38;0.50;99.90
55369;DHT22;41247;49.736;8.752;2023-02-13T05:16:19;0.50;99.90
55369;DHT22;41247;49.736;8.752;2023-02-13T05:19:59;0.40;99.90
55369;DHT22;41247;49.736;8.752;2023-02-13T05:23:40;0.40;99.90
55369;DHT22;41247;49.736;8.752;2023-02-13T05:27:21;0.30;99.90
55369;DHT22;41247;49.736;8.752;2023-02-13T05:31:01;0.30;99.90
55369;DHT22;41247;49.736;8.752;2023-02-13T05:34:42;0.10;99.90
55369;DHT22;41247;49.736;8.752;2023-02-13T05:38:23;-0.10;99.90
55369;DHT22;41247;49.736;8.752;2023-02-13T05:42:04;-0.10;99.90
55369;DHT22;41247;49.736;8.752;2023-02-13T05:45:45;-0.20;99.90
55369;DHT22;41247;49.736;8.752;2023-02-13T05:49:25;-0.10;99.90
55369;DHT22;41247;49.736;8.752;2023-02-13T05:53:06;-0.10;99.90
55369;DHT22;41247;49.736;8.752;2023-02-13T05:56:47;-0.10;99.90
55369;DHT22;41247;49.736;8.752;2023-02-13T06:00:27;-0.10;99.90
55369;DHT22;41247;49.736;8.752;2023-02-13T06:04:08;-0.20;99.90
55369;DHT22;41247;49.736;8.752;2023-02-13T06:07:48;-0.10;99.90
55369;DHT22;41247;49.736;8.752;2023-02-13T06:11:29;-0.10;99.90
55369;DHT22;41247;49.736;8.752;2023-02-13T06:15:09;-0.10;99.90
55369;DHT22;41247;49.736;8.752;2023-02-13T06:18:50;-0.10;99.90
55369;DHT22;41247;49.736;8.752;2023-02-13T06:22:31;-0.10;99.90
55369;DHT22;41247;49.736;8.752;2023-02-13T06:26:11;-0.20;99.90
55369;DHT22;41247;49.736;8.752;2023-02-13T06:29:52;-0.20;99.90
55369;DHT22;41247;49.736;8.752;2023-02-13T06:33:33;-0.30;99.90
55369;DHT22;41247;49.736;8.752;2023-02-13T06:37:13;-0.30;99.90
55369;DHT22;41247;49.736;8.752;2023-02-13T06:40:58;-0.30;99.90
55369;DHT22;41247;49.736;8.752;2023-02-13T06:44:40;-0.30;99.90
55369;DHT22;41247;49.736;8.752;2023-02-13T06:48:21;-0.30;99.90
55369;DHT22;41247;49.736;8.752;2023-02-13T06:52:02;-0.30;99.90
55369;DHT22;41247;49.736;8.752;2023-02-13T06:55:42;-0.30;99.90
55369;DHT22;41247;49.736;8.752;2023-02-13T06:59:23;-0.30;99.90
55369;DHT22;41247;49.736;8.752;2023-02-13T07:03:05;-0.30;99.90
55369;DHT22;41247;49.736;8.752;2023-02-13T07:06:45;-0.30;99.90
55369;DHT22;41247;49.736;8.752;2023-02-13T07:10:26;-0.30;99.90
55369;DHT22;41247;49.736;8.752;2023-02-13T07:14:07;-0.20;99.90
55369;DHT22;41247;49.736;8.752;2023-02-13T07:17:54;-0.10;99.90
55369;DHT22;41247;49.736;8.752;2023-02-13T07:21:36;-0.10;99.90
55369;DHT22;41247;49.736;8.752;2023-02-13T07:25:17;-0.10;99.90
55369;DHT22;41247;49.736;8.752;2023-02-13T07:28:58;0.00;99.90
55369;DHT22;41247;49.736;8.752;2023-02-13T07:32:38;0.00;99.90
55369;DHT22;41247;49.736;8.752;2023-02-13T07:36:19;0.00;99.90
55369;DHT22;41247;49.736;8.752;2023-02-13T07:39:59;0.10;99.90
55369;DHT22;41247;49.736;8.752;2023-02-13T07:43:40;0.20;99.90
55369;DHT22;41247;49.736;8.752;2023-02-13T07:47:21;0.20;99.90
55369;DHT22;41247;49.736;8.752;2023-02-13T07:51:03;0.30;99.90
55369;DHT22;41247;49.736;8.752;2023-02-13T07:54:44;0.40;99.90
55369;DHT22;41247;49.736;8.752;2023-02-13T07:58:24;0.40;99.90
55369;DHT22;41247;49.736;8.752;2023-02-13T08:02:07;0.50;99.90
55369;DHT22;41247;49.736;8.752;2023-02-13T08:05:50;0.60;99.90
55369;DHT22;41247;49.736;8.752;2023-02-13T08:09:31;0.60;99.90
55369;DHT22;41247;49.736;8.752;2023-02-13T08:13:12;0.70;99.90
55369;DHT22;41247;49.736;8.752;2023-02-13T08:16:54;0.70;99.90
55369;DHT22;41247;49.736;8.752;2023-02-13T08:20:35;0.80;99.90
55369;DHT22;41247;49.736;8.752;2023-02-13T08:24:15;0.80;99.90
55369;DHT22;41247;49.736;8.752;2023-02-13T08:27:58;0.90;99.90
55369;DHT22;41247;49.736;8.752;2023-02-13T08:31:39;1.00;99.90
55369;DHT22;41247;49.736;8.752;2023-02-13T08:35:21;1.00;99.90
55369;DHT22;41247;49.736;8.752;2023-02-13T08:39:03;1.10;99.90
55369;DHT22;41247;49.736;8.752;2023-02-13T08:42:43;1.20;99.90
55369;DHT22;41247;49.736;8.752;2023-02-13T08:46:24;1.20;99.90
55369;DHT22;41247;49.736;8.752;2023-02-13T08:50:05;1.30;99.90
55369;DHT22;41247;49.736;8.752;2023-02-13T08:53:46;1.40;99.90
55369;DHT22;41247;49.736;8.752;2023-02-13T08:57:27;1.50;99.90
55369;DHT22;41247;49.736;8.752;2023-02-13T09:01:08;1.70;99.90
55369;DHT22;41247;49.736;8.752;2023-02-13T09:04:48;1.90;99.90
55369;DHT22;41247;49.736;8.752;2023-02-13T09:08:29;2.00;99.90
55369;DHT22;41247;49.736;8.752;2023-02-13T09:12:10;2.20;99.90
55369;DHT22;41247;49.736;8.752;2023-02-13T09:15:59;2.30;99.90
55369;DHT22;41247;49.736;8.752;2023-02-13T09:19:40;2.40;99.90
55369;DHT22;41247;49.736;8.752;2023-02-13T09:23:20;2.60;99.90
55369;DHT22;41247;49.736;8.752;2023-02-13T09:27:03;2.70;99.90
55369;DHT22;41247;49.736;8.752;2023-02-13T09:30:44;2.90;99.90
55369;DHT22;41247;49.736;8.752;2023-02-13T09:34:25;3.00;99.90
55369;DHT22;41247;49.736;8.752;2023-02-13T09:38:05;3.10;99.90
55369;DHT22;41247;49.736;8.752;2023-02-13T09:41:48;3.30;99.90
55369;DHT22;41247;49.736;8.752;2023-02-13T09:45:30;3.50;99.90
55369;DHT22;41247;49.736;8.752;2023-02-13T09:49:14;3.70;99.90
55369;DHT22;41247;49.736;8.752;2023-02-13T09:52:57;3.80;99.90
55369;DHT22;41247;49.736;8.752;2023-02-13T09:57:00;4.00;99.90
55369;DHT22;41247;49.736;8.752;2023-02-13T10:00:45;4.10;99.90
55369;DHT22;41247;49.736;8.752;2023-02-13T10:04:47;4.30;99.90
55369;DHT22;41247;49.736;8.752;2023-02-13T10:08:56;4.40;99.90
55369;DHT22;41247;49.736;8.752;2023-02-13T10:13:07;4.50;99.90
55369;DHT22;41247;49.736;8.752;2023-02-13T10:17:04;4.70;99.90
55369;DHT22;41247;49.736;8.752;2023-02-13T10:20:59;4.80;99.90
55369;DHT22;41247;49.736;8.752;2023-02-13T10:24:47;5.00;99.90
55369;DHT22;41247;49.736;8.752;2023-02-13T10:28:37;5.20;99.90
55369;DHT22;41247;49.736;8.752;2023-02-13T10:32:26;5.30;99.90
55369;DHT22;41247;49.736;8.752;2023-02-13T10:39:51;5.70;99.90
55369;DHT22;41247;49.736;8.752;2023-02-13T10:43:38;5.90;99.90
55369;DHT22;41247;49.736;8.752;2023-02-13T10:47:48;6.00;99.90
55369;DHT22;41247;49.736;8.752;2023-02-13T10:51:44;6.10;99.90
55369;DHT22;41247;49.736;8.752;2023-02-13T10:56:04;6.30;99.90
55369;DHT22;41247;49.736;8.752;2023-02-13T11:04:12;6.70;99.90
55369;DHT22;41247;49.736;8.752;2023-02-13T11:07:55;6.90;99.90
55369;DHT22;41247;49.736;8.752;2023-02-13T11:11:39;7.00;99.90
55369;DHT22;41247;49.736;8.752;2023-02-13T11:15:26;7.20;99.90
55369;DHT22;41247;49.736;8.752;2023-02-13T11:19:32;7.30;99.90
55369;DHT22;41247;49.736;8.752;2023-02-13T11:27:09;7.50;99.90
55369;DHT22;41247;49.736;8.752;2023-02-13T11:30:51;7.60;99.90
55369;DHT22;41247;49.736;8.752;2023-02-13T11:34:33;7.70;99.90
55369;DHT22;41247;49.736;8.752;2023-02-13T11:41:58;7.90;99.90
55369;DHT22;41247;49.736;8.752;2023-02-13T11:45:39;8.00;99.90
55369;DHT22;41247;49.736;8.752;2023-02-13T11:49:22;8.10;99.90
55369;DHT22;41247;49.736;8.752;2023-02-13T11:53:07;8.20;99.90
55369;DHT22;41247;49.736;8.752;2023-02-13T11:57:18;8.40;99.90
55369;DHT22;41247;49.736;8.752;2023-02-13T12:05:19;8.60;99.90
55369;DHT22;41247;49.736;8.752;2023-02-13T12:09:01;8.80;99.90
55369;DHT22;41247;49.736;8.752;2023-02-13T12:12:52;8.90;99.90
55369;DHT22;41247;49.736;8.752;2023-02-13T12:16:46;9.00;99.90
55369;DHT22;41247;49.736;8.752;2023-02-13T12:37:48;9.70;99.90
55369;DHT22;41247;49.736;8.752;2023-02-13T12:45:40;9.90;99.90
55369;DHT22;41247;49.736;8.752;2023-02-13T13:01:45;10.40;99.90
55369;DHT22;41247;49.736;8.752;2023-02-13T13:05:48;10.50;99.90
55369;DHT22;41247;49.736;8.752;2023-02-13T13:22:17;11.00;99.90
55369;DHT22;41247;49.736;8.752;2023-02-13T13:26:13;11.10;99.90
55369;DHT22;41247;49.736;8.752;2023-02-13T13:30:20;11.10;99.90
55369;DHT22;41247;49.736;8.752;2023-02-13T13:34:09;11.20;99.90
55369;DHT22;41247;49.736;8.752;2023-02-13T13:38:17;11.20;99.90
55369;DHT22;41247;49.736;8.752;2023-02-13T13:50:38;11.50;99.90
55369;DHT22;41247;49.736;8.752;2023-02-13T13:54:23;11.60;99.90
55369;DHT22;41247;49.736;8.752;2023-02-13T13:58:04;11.70;99.90
55369;DHT22;41247;49.736;8.752;2023-02-13T14:01:44;11.70;99.90
55369;DHT22;41247;49.736;8.752;2023-02-13T14:05:27;11.70;99.90
55369;DHT22;41247;49.736;8.752;2023-02-13T14:09:39;11.90;99.90
55369;DHT22;41247;49.736;8.752;2023-02-13T14:13:50;11.90;99.90
55369;DHT22;41247;49.736;8.752;2023-02-13T14:21:24;11.90;99.90
55369;DHT22;41247;49.736;8.752;2023-02-13T14:25:06;11.90;99.90
55369;DHT22;41247;49.736;8.752;2023-02-13T14:33:27;11.90;99.90
55369;DHT22;41247;49.736;8.752;2023-02-13T14:40:51;12.00;99.90
55369;DHT22;41247;49.736;8.752;2023-02-13T14:44:48;12.00;99.90
55369;DHT22;41247;49.736;8.752;2023-02-13T14:48:45;12.00;99.90
55369;DHT22;41247;49.736;8.752;2023-02-13T14:52:37;12.10;99.90
55369;DHT22;41247;49.736;8.752;2023-02-13T14:56:20;12.20;99.90
55369;DHT22;41247;49.736;8.752;2023-02-13T15:00:22;12.40;99.90
55369;DHT22;41247;49.736;8.752;2023-02-13T15:04:19;12.70;99.90
55369;DHT22;41247;49.736;8.752;2023-02-13T15:08:46;13.50;99.90
55369;DHT22;41247;49.736;8.752;2023-02-13T15:12:28;15.30;99.90
55369;DHT22;41247;49.736;8.752;2023-02-13T15:16:13;18.70;99.90
55369;DHT22;41247;49.736;8.752;2023-02-13T15:19:58;20.90;99.90
55369;DHT22;41247;49.736;8.752;2023-02-13T15:23:44;21.60;99.90
55369;DHT22;41247;49.736;8.752;2023-02-13T15:27:31;22.30;99.90
55369;DHT22;41247;49.736;8.752;2023-02-13T15:31:22;22.50;99.90
55369;DHT22;41247;49.736;8.752;2023-02-13T15:35:20;21.30;99.90
55369;DHT22;41247;49.736;8.752;2023-02-13T15:39:05;21.10;99.90
55369;DHT22;41247;49.736;8.752;2023-02-13T15:42:46;21.50;99.90
55369;DHT22;41247;49.736;8.752;2023-02-13T15:46:31;21.70;99.90
55369;DHT22;41247;49.736;8.752;2023-02-13T15:50:18;20.60;99.90
55369;DHT22;41247;49.736;8.752;2023-02-13T15:54:26;18.70;99.90
55369;DHT22;41247;49.736;8.752;2023-02-13T15:58:11;17.90;99.90
55369;DHT22;41247;49.736;8.752;2023-02-13T16:01:52;16.50;99.90
55369;DHT22;41247;49.736;8.752;2023-02-13T16:05:37;14.30;99.90
55369;DHT22;41247;49.736;8.752;2023-02-13T16:09:34;12.60;99.90
55369;DHT22;41247;49.736;8.752;2023-02-13T16:13:17;11.50;99.90
55369;DHT22;41247;49.736;8.752;2023-02-13T16:17:06;10.70;99.90
55369;DHT22;41247;49.736;8.752;2023-02-13T16:20:52;10.00;99.90
55369;DHT22;41247;49.736;8.752;2023-02-13T16:24:35;9.90;99.90
55369;DHT22;41247;49.736;8.752;2023-02-13T16:28:21;10.20;99.90
55369;DHT22;41247;49.736;8.752;2023-02-13T16:32:06;9.80;99.90
55369;DHT22;41247;49.736;8.752;2023-02-13T16:35:57;9.00;99.90
55369;DHT22;41247;49.736;8.752;2023-02-13T16:39:50;8.30;99.90
55369;DHT22;41247;49.736;8.752;2023-02-13T16:47:29;7.30;99.90
55369;DHT22;41247;49.736;8.752;2023-02-13T16:51:10;6.90;99.90
55369;DHT22;41247;49.736;8.752;2023-02-13T16:54:58;6.70;99.90
55369;DHT22;41247;49.736;8.752;2023-02-13T16:58:40;6.50;99.90
55369;DHT22;41247;49.736;8.752;2023-02-13T17:06:12;6.10;99.90
55369;DHT22;41247;49.736;8.752;2023-02-13T17:09:55;5.90;99.90
55369;DHT22;41247;49.736;8.752;2023-02-13T17:13:47;5.70;99.90
55369;DHT22;41247;49.736;8.752;2023-02-13T17:17:30;5.40;99.90
55369;DHT22;41247;49.736;8.752;2023-02-13T17:21:11;5.20;99.90
55369;DHT22;41247;49.736;8.752;2023-02-13T17:24:51;5.10;99.90
55369;DHT22;41247;49.736;8.752;2023-02-13T17:28:32;5.00;99.90
55369;DHT22;41247;49.736;8.752;2023-02-13T17:32:16;4.90;99.90
55369;DHT22;41247;49.736;8.752;2023-02-13T17:35:58;4.70;99.90
55369;DHT22;41247;49.736;8.752;2023-02-13T17:39:38;4.60;99.90
55369;DHT22;41247;49.736;8.752;2023-02-13T17:43:19;4.50;99.90
55369;DHT22;41247;49.736;8.752;2023-02-13T17:47:00;4.40;99.90
55369;DHT22;41247;49.736;8.752;2023-02-13T17:50:40;4.30;99.90
55369;DHT22;41247;49.736;8.752;2023-02-13T17:54:21;4.20;99.90
55369;DHT22;41247;49.736;8.752;2023-02-13T17:58:02;4.10;99.90
55369;DHT22;41247;49.736;8.752;2023-02-13T18:01:42;4.10;99.90
55369;DHT22;41247;49.736;8.752;2023-02-13T18:05:23;4.10;99.90
55369;DHT22;41247;49.736;8.752;2023-02-13T18:09:04;4.10;99.90
55369;DHT22;41247;49.736;8.752;2023-02-13T18:12:45;4.10;99.90
55369;DHT22;41247;49.736;8.752;2023-02-13T18:16:27;4.10;99.90
55369;DHT22;41247;49.736;8.752;2023-02-13T18:20:11;4.00;99.90
55369;DHT22;41247;49.736;8.752;2023-02-13T18:23:53;3.90;99.90
55369;DHT22;41247;49.736;8.752;2023-02-13T18:27:34;3.90;99.90
55369;DHT22;41247;49.736;8.752;2023-02-13T18:31:15;3.80;99.90
55369;DHT22;41247;49.736;8.752;2023-02-13T18:34:55;3.80;99.90
55369;DHT22;41247;49.736;8.752;2023-02-13T18:38:36;3.70;99.90
55369;DHT22;41247;49.736;8.752;2023-02-13T18:42:17;3.60;99.90
55369;DHT22;41247;49.736;8.752;2023-02-13T18:45:57;3.70;99.90
55369;DHT22;41247;49.736;8.752;2023-02-13T18:49:38;3.60;99.90
55369;DHT22;41247;49.736;8.752;2023-02-13T18:53:18;3.50;99.90
55369;DHT22;41247;49.736;8.752;2023-02-13T18:56:59;3.50;99.90
55369;DHT22;41247;49.736;8.752;2023-02-13T19:00:40;3.50;99.90
55369;DHT22;41247;49.736;8.752;2023-02-13T19:04:20;3.50;99.90
55369;DHT22;41247;49.736;8.752;2023-02-13T19:08:01;3.50;99.90
55369;DHT22;41247;49.736;8.752;2023-02-13T19:11:42;3.50;99.90
55369;DHT22;41247;49.736;8.752;2023-02-13T19:15:23;3.30;99.90
55369;DHT22;41247;49.736;8.752;2023-02-13T19:19:05;3.20;99.90
55369;DHT22;41247;49.736;8.752;2023-02-13T19:22:46;3.10;99.90
55369;DHT22;41247;49.736;8.752;2023-02-13T19:26:26;3.10;99.90
55369;DHT22;41247;49.736;8.752;2023-02-13T19:30:07;3.00;99.90
55369;DHT22;41247;49.736;8.752;2023-02-13T19:33:49;3.00;99.90
55369;DHT22;41247;49.736;8.752;2023-02-13T19:37:30;3.10;99.90
55369;DHT22;41247;49.736;8.752;2023-02-13T19:41:19;3.30;99.90
55369;DHT22;41247;49.736;8.752;2023-02-13T19:45:00;3.40;99.90
55369;DHT22;41247;49.736;8.752;2023-02-13T19:48:41;3.30;99.90
55369;DHT22;41247;49.736;8.752;2023-02-13T19:52:22;3.30;99.90
55369;DHT22;41247;49.736;8.752;2023-02-13T19:56:03;3.30;99.90
55369;DHT22;41247;49.736;8.752;2023-02-13T19:59:45;3.20;99.90
55369;DHT22;41247;49.736;8.752;2023-02-13T20:03:25;3.20;99.90
55369;DHT22;41247;49.736;8.752;2023-02-13T20:07:06;3.00;99.90
55369;DHT22;41247;49.736;8.752;2023-02-13T20:10:46;3.00;99.90
55369;DHT22;41247;49.736;8.752;2023-02-13T20:14:27;2.90;99.90
55369;DHT22;41247;49.736;8.752;2023-02-13T20:18:08;2.80;99.90
55369;DHT22;41247;49.736;8.752;2023-02-13T20:21:48;2.70;99.90
55369;DHT22;41247;49.736;8.752;2023-02-13T20:25:29;2.70;99.90
55369;DHT22;41247;49.736;8.752;2023-02-13T20:29:10;2.70;99.90
55369;DHT22;41247;49.736;8.752;2023-02-13T20:32:50;2.60;99.90
55369;DHT22;41247;49.736;8.752;2023-02-13T20:36:31;2.50;99.90
55369;DHT22;41247;49.736;8.752;2023-02-13T20:40:12;2.40;99.90
55369;DHT22;41247;49.736;8.752;2023-02-13T20:43:56;2.30;99.90
55369;DHT22;41247;49.736;8.752;2023-02-13T20:47:38;2.20;99.90
55369;DHT22;41247;49.736;8.752;2023-02-13T20:51:18;2.10;99.90
55369;DHT22;41247;49.736;8.752;2023-02-13T20:54:59;2.10;99.90
55369;DHT22;41247;49.736;8.752;2023-02-13T20:58:41;2.00;99.90
55369;DHT22;41247;49.736;8.752;2023-02-13T21:02:22;2.00;99.90
55369;DHT22;41247;49.736;8.752;2023-02-13T21:06:03;1.90;99.90
55369;DHT22;41247;49.736;8.752;2023-02-13T21:09:44;1.80;99.90
55369;DHT22;41247;49.736;8.752;2023-02-13T21:13:24;1.70;99.90
55369;DHT22;41247;49.736;8.752;2023-02-13T21:17:05;1.60;99.90
55369;DHT22;41247;49.736;8.752;2023-02-13T21:20:46;1.60;99.90
55369;DHT22;41247;49.736;8.752;2023-02-13T21:24:27;1.60;99.90
55369;DHT22;41247;49.736;8.752;2023-02-13T21:28:07;1.50;99.90
55369;DHT22;41247;49.736;8.752;2023-02-13T21:31:48;1.50;99.90
55369;DHT22;41247;49.736;8.752;2023-02-13T21:35:29;1.50;99.90
55369;DHT22;41247;49.736;8.752;2023-02-13T21:39:10;1.40;99.90
55369;DHT22;41247;49.736;8.752;2023-02-13T21:42:51;1.40;99.90
55369;DHT22;41247;49.736;8.752;2023-02-13T21:46:32;1.40;99.90
55369;DHT22;41247;49.736;8.752;2023-02-13T21:50:13;1.40;99.90
55369;DHT22;41247;49.736;8.752;2023-02-13T21:53:54;1.30;99.90
55369;DHT22;41247;49.736;8.752;2023-02-13T21:57:35;1.30;99.90
55369;DHT22;41247;49.736;8.752;2023-02-13T22:01:19;1.20;99.90
55369;DHT22;41247;49.736;8.752;2023-02-13T22:05:02;1.20;99.90
55369;DHT22;41247;49.736;8.752;2023-02-13T22:08:43;1.10;99.90
55369;DHT22;41247;49.736;8.752;2023-02-13T22:12:23;1.10;99.90
55369;DHT22;41247;49.736;8.752;2023-02-13T22:16:07;1.10;99.90
55369;DHT22;41247;49.736;8.752;2023-02-13T22:19:48;1.00;99.90
55369;DHT22;41247;49.736;8.752;2023-02-13T22:23:29;1.00;99.90
55369;DHT22;41247;49.736;8.752;2023-02-13T22:27:09;1.00;99.90
55369;DHT22;41247;49.736;8.752;2023-02-13T22:30:50;1.00;99.90
55369;DHT22;41247;49.736;8.752;2023-02-13T22:34:31;1.00;99.90
55369;DHT22;41247;49.736;8.752;2023-02-13T22:38:11;0.90;99.90
55369;DHT22;41247;49.736;8.752;2023-02-13T22:41:54;1.00;99.90
55369;DHT22;41247;49.736;8.752;2023-02-13T22:45:36;1.00;99.90
55369;DHT22;41247;49.736;8.752;2023-02-13T22:49:17;1.00;99.90
55369;DHT22;41247;49.736;8.752;2023-02-13T22:52:58;1.10;99.90
55369;DHT22;41247;49.736;8.752;2023-02-13T22:56:39;1.10;99.90
55369;DHT22;41247;49.736;8.752;2023-02-13T23:00:20;1.00;99.90
55369;DHT22;41247;49.736;8.752;2023-02-13T23:04:02;1.00;99.90
55369;DHT22;41247;49.736;8.752;2023-02-13T23:07:43;0.90;99.90
55369;DHT22;41247;49.736;8.752;2023-02-13T23:11:26;0.90;99.90
55369;DHT22;41247;49.736;8.752;2023-02-13T23:15:12;0.80;99.90
55369;DHT22;41247;49.736;8.752;2023-02-13T23:18:55;0.80;99.90
55369;DHT22;41247;49.736;8.752;2023-02-13T23:22:37;0.80;99.90
55369;DHT22;41247;49.736;8.752;2023-02-13T23:26:17;0.70;99.90
55369;DHT22;41247;49.736;8.752;2023-02-13T23:29:58;0.70;99.90
55369;DHT22;41247;49.736;8.752;2023-02-13T23:33:39;0.60;99.90
55369;DHT22;41247;49.736;8.752;2023-02-13T23:37:19;0.50;99.90
55369;DHT22;41247;49.736;8.752;2023-02-13T23:41:07;0.50;99.90
55369;DHT22;41247;49.736;8.752;2023-02-13T23:44:48;0.50;99.90
55369;DHT22;41247;49.736;8.752;2023-02-13T23:48:29;0.50;99.90
55369;DHT22;41247;49.736;8.752;2023-02-13T23:52:09;0.50;99.90
55369;DHT22;41247;49.736;8.752;2023-02-13T23:55:50;0.40;99.90
55369;DHT22;41247;49.736;8.752;2023-02-13T23:59:33;0.40;99.90
